This is the latest recevied weather packets stored in our database for station/object WA1TYB-13. If no packets are shown the sender has not sent any weather packets the latest 10 day(s).
| Time | Temp. | Humidity | Pressure | Rain* | Wind** | Luminosity | Snow |
|---|---|---|---|---|---|---|---|
| 1777419843 | 12.22° C | 37% | 1018.6 hPa | 0 mm | - | 100 W/m² | - |
| 1777419541 | 11.67° C | 40% | 1018.6 hPa | 0 mm | - | 130 W/m² | - |
| 1777419240 | 11.67° C | 41% | 1018.6 hPa | 0 mm | - | 96 W/m² | - |
| 1777418937 | 11.11° C | 45% | 1018.9 hPa | 0 mm | - | 131 W/m² | - |
| 1777418632 | 10.56° C | 46% | 1018.6 hPa | 0 mm | - | 109 W/m² | - |
| 1777418328 | 11.11° C | 45% | 1018.7 hPa | 0 mm | - | 68 W/m² | - |
| 1777418024 | 11.67° C | 42% | 1018.7 hPa | 0 mm | - | 468 W/m² | - |
| 1777417720 | 10.56° C | 45% | 1018.7 hPa | 0 mm | - | 276 W/m² | - |
| 1777417416 | 10.56° C | 44% | 1018.8 hPa | 0 mm | - | 323 W/m² | - |
| 1777417113 | 10° C | 46% | 1018.5 hPa | 0 mm | - | 463 W/m² | - |
| 1777416808 | 10° C | 47% | 1018.9 hPa | 0 mm | - | 263 W/m² | - |
| 1777416503 | 9.44° C | 47% | 1018.9 hPa | 0 mm | - | 158 W/m² | - |
| 1777416200 | 9.44° C | 50% | 1018.7 hPa | 0 mm | - | 97 W/m² | - |
| 1777415900 | 9.44° C | 46% | 1018.9 hPa | 0 mm | - | 120 W/m² | - |
| 1777415596 | 9.44° C | 47% | 1018.7 hPa | 0 mm | - | 135 W/m² | - |
| 1777415291 | 10° C | 48% | 1018.7 hPa | 0 mm | - | 197 W/m² | - |
| 1777414986 | 10° C | 46% | 1018.5 hPa | 0 mm | - | 527 W/m² | - |
| 1777414680 | 10° C | 49% | 1018.4 hPa | 0 mm | - | 570 W/m² | - |
| 1777414376 | 10.56° C | 47% | 1018.6 hPa | 0 mm | - | 585 W/m² | - |
| 1777414076 | 10° C | 48% | 1018.4 hPa | 0 mm | - | 602 W/m² | - |
| 1777413770 | 10.56° C | 47% | 1018.2 hPa | 0 mm | - | 336 W/m² | - |
| 1777413466 | 11.11° C | 41% | 1018.4 hPa | 0 mm | - | 131 W/m² | - |
| 1777413163 | 10.56° C | 42% | 1018.2 hPa | 0 mm | - | 146 W/m² | - |
| 1777412857 | 11.11° C | 42% | 1018.4 hPa | 0 mm | - | 143 W/m² | - |
| 1777412552 | 11.67° C | 43% | 1018.2 hPa | 0 mm | - | 586 W/m² | - |
* Rain latest hour (hover to see other rain measurements)
** Current wind speed in m/s (hover to see current wind gust speed)